sensor_id;sensor_type;location;lat;lon;timestamp;temperature;humidity
14049;DHT22;7099;53.922;10.728;2023-02-15T00:02:23;1.10;69.30
14049;DHT22;7099;53.922;10.728;2023-02-15T00:06:29;1.10;69.20
14049;DHT22;7099;53.922;10.728;2023-02-15T00:10:35;1.10;69.10
14049;DHT22;7099;53.922;10.728;2023-02-15T00:14:40;1.10;68.90
14049;DHT22;7099;53.922;10.728;2023-02-15T00:18:47;1.10;68.90
14049;DHT22;7099;53.922;10.728;2023-02-15T00:22:52;1.10;69.30
14049;DHT22;7099;53.922;10.728;2023-02-15T00:26:58;1.00;69.20
14049;DHT22;7099;53.922;10.728;2023-02-15T00:31:06;1.00;69.50
14049;DHT22;7099;53.922;10.728;2023-02-15T00:35:15;1.00;69.40
14049;DHT22;7099;53.922;10.728;2023-02-15T00:39:21;1.00;69.20
14049;DHT22;7099;53.922;10.728;2023-02-15T00:43:29;1.00;69.20
14049;DHT22;7099;53.922;10.728;2023-02-15T00:47:35;0.90;69.20
14049;DHT22;7099;53.922;10.728;2023-02-15T00:51:41;0.90;69.10
14049;DHT22;7099;53.922;10.728;2023-02-15T00:55:47;0.90;69.20
14049;DHT22;7099;53.922;10.728;2023-02-15T00:59:53;0.90;69.50
14049;DHT22;7099;53.922;10.728;2023-02-15T01:03:58;1.00;69.40
14049;DHT22;7099;53.922;10.728;2023-02-15T01:08:04;0.90;69.60
14049;DHT22;7099;53.922;10.728;2023-02-15T01:12:09;0.80;69.60
14049;DHT22;7099;53.922;10.728;2023-02-15T01:16:15;0.80;69.30
14049;DHT22;7099;53.922;10.728;2023-02-15T01:20:24;0.80;69.20
14049;DHT22;7099;53.922;10.728;2023-02-15T01:24:31;0.70;69.20
14049;DHT22;7099;53.922;10.728;2023-02-15T01:28:37;0.70;69.50
14049;DHT22;7099;53.922;10.728;2023-02-15T01:32:44;0.70;69.20
14049;DHT22;7099;53.922;10.728;2023-02-15T01:36:49;0.70;69.20
14049;DHT22;7099;53.922;10.728;2023-02-15T01:40:55;0.60;69.00
14049;DHT22;7099;53.922;10.728;2023-02-15T01:45:28;0.60;68.90
14049;DHT22;7099;53.922;10.728;2023-02-15T01:49:35;0.50;69.40
14049;DHT22;7099;53.922;10.728;2023-02-15T01:53:47;0.50;69.10
14049;DHT22;7099;53.922;10.728;2023-02-15T01:58:00;0.50;69.10
14049;DHT22;7099;53.922;10.728;2023-02-15T02:02:09;0.50;69.30
14049;DHT22;7099;53.922;10.728;2023-02-15T02:06:19;0.40;69.90
14049;DHT22;7099;53.922;10.728;2023-02-15T02:10:25;0.40;69.10
14049;DHT22;7099;53.922;10.728;2023-02-15T02:14:31;0.40;69.20
14049;DHT22;7099;53.922;10.728;2023-02-15T02:18:49;0.40;69.10
14049;DHT22;7099;53.922;10.728;2023-02-15T02:37:19;0.20;69.40
14049;DHT22;7099;53.922;10.728;2023-02-15T02:46:30;0.20;69.80
14049;DHT22;7099;53.922;10.728;2023-02-15T02:50:40;0.20;70.00
14049;DHT22;7099;53.922;10.728;2023-02-15T02:54:46;0.20;69.70
14049;DHT22;7099;53.922;10.728;2023-02-15T02:59:05;0.10;70.20
14049;DHT22;7099;53.922;10.728;2023-02-15T03:03:37;0.10;69.60
14049;DHT22;7099;53.922;10.728;2023-02-15T03:07:46;0.10;69.40
14049;DHT22;7099;53.922;10.728;2023-02-15T03:11:55;0.00;69.20
14049;DHT22;7099;53.922;10.728;2023-02-15T03:16:01;0.00;69.40
14049;DHT22;7099;53.922;10.728;2023-02-15T03:20:36;0.00;69.30
14049;DHT22;7099;53.922;10.728;2023-02-15T03:29:10;-0.10;69.30
14049;DHT22;7099;53.922;10.728;2023-02-15T03:33:17;-0.10;69.30
14049;DHT22;7099;53.922;10.728;2023-02-15T03:37:35;-0.10;69.40
14049;DHT22;7099;53.922;10.728;2023-02-15T03:42:11;0.00;69.50
14049;DHT22;7099;53.922;10.728;2023-02-15T03:50:38;-0.20;69.60
14049;DHT22;7099;53.922;10.728;2023-02-15T03:55:03;-0.20;69.50
14049;DHT22;7099;53.922;10.728;2023-02-15T03:59:09;-0.20;69.40
14049;DHT22;7099;53.922;10.728;2023-02-15T04:03:40;-0.20;69.50
14049;DHT22;7099;53.922;10.728;2023-02-15T04:07:48;-0.20;69.50
14049;DHT22;7099;53.922;10.728;2023-02-15T04:11:53;-0.20;69.70
14049;DHT22;7099;53.922;10.728;2023-02-15T04:15:59;-0.20;69.70
14049;DHT22;7099;53.922;10.728;2023-02-15T04:20:12;-0.20;69.90
14049;DHT22;7099;53.922;10.728;2023-02-15T04:24:36;-0.20;70.20
14049;DHT22;7099;53.922;10.728;2023-02-15T04:29:00;-0.10;71.00
14049;DHT22;7099;53.922;10.728;2023-02-15T04:33:05;-0.10;70.30
14049;DHT22;7099;53.922;10.728;2023-02-15T04:37:11;-0.10;70.50
14049;DHT22;7099;53.922;10.728;2023-02-15T04:41:16;0.00;70.80
14049;DHT22;7099;53.922;10.728;2023-02-15T04:45:22;0.00;71.00
14049;DHT22;7099;53.922;10.728;2023-02-15T04:49:27;0.00;71.10
14049;DHT22;7099;53.922;10.728;2023-02-15T04:53:33;0.10;71.40
14049;DHT22;7099;53.922;10.728;2023-02-15T04:57:39;0.10;71.40
14049;DHT22;7099;53.922;10.728;2023-02-15T05:01:44;0.20;71.60
14049;DHT22;7099;53.922;10.728;2023-02-15T05:05:51;0.20;71.60
14049;DHT22;7099;53.922;10.728;2023-02-15T05:09:57;0.30;71.70
14049;DHT22;7099;53.922;10.728;2023-02-15T05:14:03;0.30;72.20
14049;DHT22;7099;53.922;10.728;2023-02-15T05:18:08;0.40;72.80
14049;DHT22;7099;53.922;10.728;2023-02-15T05:22:14;0.40;73.40
14049;DHT22;7099;53.922;10.728;2023-02-15T05:26:22;0.50;74.10
14049;DHT22;7099;53.922;10.728;2023-02-15T05:31:12;0.60;75.00
14049;DHT22;7099;53.922;10.728;2023-02-15T05:35:27;0.70;75.60
14049;DHT22;7099;53.922;10.728;2023-02-15T05:39:33;0.80;75.70
14049;DHT22;7099;53.922;10.728;2023-02-15T05:43:38;0.80;75.40
14049;DHT22;7099;53.922;10.728;2023-02-15T05:47:44;0.90;75.40
14049;DHT22;7099;53.922;10.728;2023-02-15T05:51:51;0.90;75.80
14049;DHT22;7099;53.922;10.728;2023-02-15T05:55:57;1.00;75.80
14049;DHT22;7099;53.922;10.728;2023-02-15T06:00:06;1.00;75.90
14049;DHT22;7099;53.922;10.728;2023-02-15T06:04:13;1.10;76.00
14049;DHT22;7099;53.922;10.728;2023-02-15T06:08:18;1.20;76.00
14049;DHT22;7099;53.922;10.728;2023-02-15T06:12:24;1.20;76.30
14049;DHT22;7099;53.922;10.728;2023-02-15T06:16:30;1.30;76.10
14049;DHT22;7099;53.922;10.728;2023-02-15T06:20:36;1.30;75.90
14049;DHT22;7099;53.922;10.728;2023-02-15T06:24:42;1.40;76.10
14049;DHT22;7099;53.922;10.728;2023-02-15T06:28:48;1.40;76.20
14049;DHT22;7099;53.922;10.728;2023-02-15T06:32:53;1.40;76.50
14049;DHT22;7099;53.922;10.728;2023-02-15T06:36:59;1.50;76.40
14049;DHT22;7099;53.922;10.728;2023-02-15T06:41:04;1.50;76.30
14049;DHT22;7099;53.922;10.728;2023-02-15T06:45:11;1.60;76.30
14049;DHT22;7099;53.922;10.728;2023-02-15T06:49:17;1.60;76.40
14049;DHT22;7099;53.922;10.728;2023-02-15T06:53:22;1.60;76.50
14049;DHT22;7099;53.922;10.728;2023-02-15T06:57:28;1.70;76.40
14049;DHT22;7099;53.922;10.728;2023-02-15T07:01:33;1.80;76.60
14049;DHT22;7099;53.922;10.728;2023-02-15T07:05:39;1.70;76.40
14049;DHT22;7099;53.922;10.728;2023-02-15T07:09:45;1.80;76.50
14049;DHT22;7099;53.922;10.728;2023-02-15T07:13:51;1.80;76.40
14049;DHT22;7099;53.922;10.728;2023-02-15T07:17:57;1.80;76.50
14049;DHT22;7099;53.922;10.728;2023-02-15T07:22:04;1.80;76.60
14049;DHT22;7099;53.922;10.728;2023-02-15T07:26:10;1.80;76.70
14049;DHT22;7099;53.922;10.728;2023-02-15T07:30:16;1.90;76.50
14049;DHT22;7099;53.922;10.728;2023-02-15T07:34:22;1.90;76.50
14049;DHT22;7099;53.922;10.728;2023-02-15T07:38:33;2.00;76.50
14049;DHT22;7099;53.922;10.728;2023-02-15T07:42:40;2.00;76.70
14049;DHT22;7099;53.922;10.728;2023-02-15T07:46:46;2.00;76.50
14049;DHT22;7099;53.922;10.728;2023-02-15T07:50:51;2.10;76.70
14049;DHT22;7099;53.922;10.728;2023-02-15T07:54:57;2.10;76.60
14049;DHT22;7099;53.922;10.728;2023-02-15T07:59:03;2.20;76.80
14049;DHT22;7099;53.922;10.728;2023-02-15T08:03:10;2.10;76.60
14049;DHT22;7099;53.922;10.728;2023-02-15T08:07:18;2.20;76.60
14049;DHT22;7099;53.922;10.728;2023-02-15T08:11:29;2.30;76.70
14049;DHT22;7099;53.922;10.728;2023-02-15T08:15:50;2.30;76.70
14049;DHT22;7099;53.922;10.728;2023-02-15T08:19:56;2.30;76.80
14049;DHT22;7099;53.922;10.728;2023-02-15T08:24:01;2.40;76.70
14049;DHT22;7099;53.922;10.728;2023-02-15T08:28:07;2.40;76.70
14049;DHT22;7099;53.922;10.728;2023-02-15T08:32:13;2.40;76.80
14049;DHT22;7099;53.922;10.728;2023-02-15T08:36:21;2.50;76.80
14049;DHT22;7099;53.922;10.728;2023-02-15T08:40:28;2.50;77.00
14049;DHT22;7099;53.922;10.728;2023-02-15T08:44:34;2.50;76.80
14049;DHT22;7099;53.922;10.728;2023-02-15T08:48:40;2.50;76.80
14049;DHT22;7099;53.922;10.728;2023-02-15T08:52:46;2.60;76.90
14049;DHT22;7099;53.922;10.728;2023-02-15T08:56:51;2.70;76.90
14049;DHT22;7099;53.922;10.728;2023-02-15T09:00:58;2.60;76.60
14049;DHT22;7099;53.922;10.728;2023-02-15T09:05:04;2.60;76.60
14049;DHT22;7099;53.922;10.728;2023-02-15T09:09:11;2.70;76.40
14049;DHT22;7099;53.922;10.728;2023-02-15T09:13:17;2.70;76.30
14049;DHT22;7099;53.922;10.728;2023-02-15T09:17:22;2.70;77.00
14049;DHT22;7099;53.922;10.728;2023-02-15T09:21:28;2.80;76.60
14049;DHT22;7099;53.922;10.728;2023-02-15T09:25:34;2.80;76.50
14049;DHT22;7099;53.922;10.728;2023-02-15T09:29:40;2.80;76.70
14049;DHT22;7099;53.922;10.728;2023-02-15T09:33:47;2.90;76.50
14049;DHT22;7099;53.922;10.728;2023-02-15T09:37:53;3.00;76.60
14049;DHT22;7099;53.922;10.728;2023-02-15T09:46:27;3.00;76.50
14049;DHT22;7099;53.922;10.728;2023-02-15T09:56:02;3.10;76.90
14049;DHT22;7099;53.922;10.728;2023-02-15T10:05:37;3.30;76.80
14049;DHT22;7099;53.922;10.728;2023-02-15T10:19:23;3.40;76.40
14049;DHT22;7099;53.922;10.728;2023-02-15T10:28:45;3.60;76.70
14049;DHT22;7099;53.922;10.728;2023-02-15T10:33:01;3.70;76.40
14049;DHT22;7099;53.922;10.728;2023-02-15T10:51:01;4.00;77.00
14049;DHT22;7099;53.922;10.728;2023-02-15T11:00:05;4.00;75.70
14049;DHT22;7099;53.922;10.728;2023-02-15T11:08:54;4.10;75.50
14049;DHT22;7099;53.922;10.728;2023-02-15T11:13:13;4.20;75.40
14049;DHT22;7099;53.922;10.728;2023-02-15T11:17:39;4.20;75.60
14049;DHT22;7099;53.922;10.728;2023-02-15T11:21:59;4.30;75.90
14049;DHT22;7099;53.922;10.728;2023-02-15T11:26:14;4.40;75.60
14049;DHT22;7099;53.922;10.728;2023-02-15T11:30:27;4.50;75.30
14049;DHT22;7099;53.922;10.728;2023-02-15T11:35:00;4.40;75.30
14049;DHT22;7099;53.922;10.728;2023-02-15T11:39:12;4.50;75.40
14049;DHT22;7099;53.922;10.728;2023-02-15T11:47:46;4.60;75.10
14049;DHT22;7099;53.922;10.728;2023-02-15T11:51:53;4.60;74.70
14049;DHT22;7099;53.922;10.728;2023-02-15T11:56:00;4.60;74.80
14049;DHT22;7099;53.922;10.728;2023-02-15T12:04:51;4.60;75.60
14049;DHT22;7099;53.922;10.728;2023-02-15T12:09:09;4.60;74.70
14049;DHT22;7099;53.922;10.728;2023-02-15T12:13:27;4.70;74.80
14049;DHT22;7099;53.922;10.728;2023-02-15T12:17:37;4.80;74.80
14049;DHT22;7099;53.922;10.728;2023-02-15T12:21:49;4.80;74.80
14049;DHT22;7099;53.922;10.728;2023-02-15T12:25:58;4.80;74.70
14049;DHT22;7099;53.922;10.728;2023-02-15T12:30:17;4.90;74.80
14049;DHT22;7099;53.922;10.728;2023-02-15T12:34:36;5.00;74.80
14049;DHT22;7099;53.922;10.728;2023-02-15T12:43:38;5.10;74.50
14049;DHT22;7099;53.922;10.728;2023-02-15T12:47:43;5.20;74.50
14049;DHT22;7099;53.922;10.728;2023-02-15T12:51:52;5.10;74.40
14049;DHT22;7099;53.922;10.728;2023-02-15T12:56:01;5.10;74.30
14049;DHT22;7099;53.922;10.728;2023-02-15T13:04:28;5.20;74.70
14049;DHT22;7099;53.922;10.728;2023-02-15T13:08:44;5.30;74.70
14049;DHT22;7099;53.922;10.728;2023-02-15T13:12:52;5.30;74.30
14049;DHT22;7099;53.922;10.728;2023-02-15T13:17:02;5.50;74.60
14049;DHT22;7099;53.922;10.728;2023-02-15T13:21:12;5.50;74.60
14049;DHT22;7099;53.922;10.728;2023-02-15T13:25:22;5.60;74.30
14049;DHT22;7099;53.922;10.728;2023-02-15T13:29:36;5.50;74.20
14049;DHT22;7099;53.922;10.728;2023-02-15T13:33:46;5.50;74.10
14049;DHT22;7099;53.922;10.728;2023-02-15T13:48:05;5.60;74.30
14049;DHT22;7099;53.922;10.728;2023-02-15T13:52:25;5.70;74.00
14049;DHT22;7099;53.922;10.728;2023-02-15T14:01:57;5.70;74.10
14049;DHT22;7099;53.922;10.728;2023-02-15T14:10:51;5.70;74.10
14049;DHT22;7099;53.922;10.728;2023-02-15T14:19:48;5.80;74.20
14049;DHT22;7099;53.922;10.728;2023-02-15T14:33:04;5.90;73.90
14049;DHT22;7099;53.922;10.728;2023-02-15T14:41:59;5.80;74.00
14049;DHT22;7099;53.922;10.728;2023-02-15T14:50:46;5.70;74.00
14049;DHT22;7099;53.922;10.728;2023-02-15T14:54:53;5.80;74.40
14049;DHT22;7099;53.922;10.728;2023-02-15T14:59:12;5.80;74.20
14049;DHT22;7099;53.922;10.728;2023-02-15T15:03:24;5.80;74.90
14049;DHT22;7099;53.922;10.728;2023-02-15T15:11:50;5.80;74.30
14049;DHT22;7099;53.922;10.728;2023-02-15T15:16:23;5.80;74.10
14049;DHT22;7099;53.922;10.728;2023-02-15T15:20:49;5.80;74.10
14049;DHT22;7099;53.922;10.728;2023-02-15T15:24:56;5.80;74.30
14049;DHT22;7099;53.922;10.728;2023-02-15T15:29:05;5.80;74.20
14049;DHT22;7099;53.922;10.728;2023-02-15T15:33:26;5.80;74.40
14049;DHT22;7099;53.922;10.728;2023-02-15T15:47:50;5.70;74.60
14049;DHT22;7099;53.922;10.728;2023-02-15T15:52:20;5.70;74.70
14049;DHT22;7099;53.922;10.728;2023-02-15T15:56:28;5.70;74.70
14049;DHT22;7099;53.922;10.728;2023-02-15T16:01:09;5.70;74.60
14049;DHT22;7099;53.922;10.728;2023-02-15T16:05:16;5.70;74.90
14049;DHT22;7099;53.922;10.728;2023-02-15T16:09:25;5.60;74.70
14049;DHT22;7099;53.922;10.728;2023-02-15T16:13:33;5.60;74.80
14049;DHT22;7099;53.922;10.728;2023-02-15T16:17:41;5.60;74.80
14049;DHT22;7099;53.922;10.728;2023-02-15T16:21:48;5.60;74.80
14049;DHT22;7099;53.922;10.728;2023-02-15T16:34:35;5.60;74.80
14049;DHT22;7099;53.922;10.728;2023-02-15T16:42:56;5.60;74.90
14049;DHT22;7099;53.922;10.728;2023-02-15T16:47:15;5.60;75.00
14049;DHT22;7099;53.922;10.728;2023-02-15T16:51:29;5.50;75.20
14049;DHT22;7099;53.922;10.728;2023-02-15T16:55:41;5.50;75.20
14049;DHT22;7099;53.922;10.728;2023-02-15T16:59:53;5.40;75.20
14049;DHT22;7099;53.922;10.728;2023-02-15T17:04:33;5.40;75.30
14049;DHT22;7099;53.922;10.728;2023-02-15T17:08:44;5.50;75.30
14049;DHT22;7099;53.922;10.728;2023-02-15T17:12:53;5.40;75.20
14049;DHT22;7099;53.922;10.728;2023-02-15T17:17:01;5.40;75.20
14049;DHT22;7099;53.922;10.728;2023-02-15T17:21:20;5.30;75.20
14049;DHT22;7099;53.922;10.728;2023-02-15T17:25:38;5.20;75.40
14049;DHT22;7099;53.922;10.728;2023-02-15T17:29:47;5.20;75.50
14049;DHT22;7099;53.922;10.728;2023-02-15T17:33:58;5.10;75.60
14049;DHT22;7099;53.922;10.728;2023-02-15T17:38:19;5.20;75.60
14049;DHT22;7099;53.922;10.728;2023-02-15T17:42:25;5.10;75.60
14049;DHT22;7099;53.922;10.728;2023-02-15T17:46:35;5.10;75.50
14049;DHT22;7099;53.922;10.728;2023-02-15T17:50:42;5.10;75.60
14049;DHT22;7099;53.922;10.728;2023-02-15T17:54:47;5.10;75.60
14049;DHT22;7099;53.922;10.728;2023-02-15T17:59:11;5.10;75.60
14049;DHT22;7099;53.922;10.728;2023-02-15T18:03:18;5.00;75.50
14049;DHT22;7099;53.922;10.728;2023-02-15T18:07:42;5.00;75.70
14049;DHT22;7099;53.922;10.728;2023-02-15T18:12:28;4.90;75.70
14049;DHT22;7099;53.922;10.728;2023-02-15T18:16:43;5.00;76.10
14049;DHT22;7099;53.922;10.728;2023-02-15T18:20:50;4.90;75.70
14049;DHT22;7099;53.922;10.728;2023-02-15T18:24:56;5.00;75.80
14049;DHT22;7099;53.922;10.728;2023-02-15T18:29:01;4.90;75.80
14049;DHT22;7099;53.922;10.728;2023-02-15T18:33:38;4.90;75.80
14049;DHT22;7099;53.922;10.728;2023-02-15T18:37:52;4.90;76.20
14049;DHT22;7099;53.922;10.728;2023-02-15T18:41:58;4.90;75.90
14049;DHT22;7099;53.922;10.728;2023-02-15T18:46:04;4.90;75.90
14049;DHT22;7099;53.922;10.728;2023-02-15T18:50:11;4.80;76.60
14049;DHT22;7099;53.922;10.728;2023-02-15T18:54:21;4.80;76.00
14049;DHT22;7099;53.922;10.728;2023-02-15T18:58:27;4.70;76.10
14049;DHT22;7099;53.922;10.728;2023-02-15T19:02:33;4.70;76.10
14049;DHT22;7099;53.922;10.728;2023-02-15T19:06:42;4.70;76.10
14049;DHT22;7099;53.922;10.728;2023-02-15T19:10:51;4.60;76.10
14049;DHT22;7099;53.922;10.728;2023-02-15T19:14:57;4.70;76.00
14049;DHT22;7099;53.922;10.728;2023-02-15T19:19:02;4.60;76.00
14049;DHT22;7099;53.922;10.728;2023-02-15T19:23:22;4.70;76.10
14049;DHT22;7099;53.922;10.728;2023-02-15T19:27:29;4.60;76.10
14049;DHT22;7099;53.922;10.728;2023-02-15T19:31:39;4.60;76.10
14049;DHT22;7099;53.922;10.728;2023-02-15T19:35:47;4.60;76.10
14049;DHT22;7099;53.922;10.728;2023-02-15T19:39:56;4.50;76.10
14049;DHT22;7099;53.922;10.728;2023-02-15T19:44:02;4.50;76.20
14049;DHT22;7099;53.922;10.728;2023-02-15T19:48:11;4.50;76.20
14049;DHT22;7099;53.922;10.728;2023-02-15T19:52:20;4.50;76.30
14049;DHT22;7099;53.922;10.728;2023-02-15T19:56:29;4.50;76.90
14049;DHT22;7099;53.922;10.728;2023-02-15T20:00:35;4.50;76.30
14049;DHT22;7099;53.922;10.728;2023-02-15T20:04:40;4.40;76.20
14049;DHT22;7099;53.922;10.728;2023-02-15T20:08:46;4.40;76.30
14049;DHT22;7099;53.922;10.728;2023-02-15T20:12:52;4.40;76.30
14049;DHT22;7099;53.922;10.728;2023-02-15T20:16:59;4.40;76.20
14049;DHT22;7099;53.922;10.728;2023-02-15T20:21:08;4.30;76.30
14049;DHT22;7099;53.922;10.728;2023-02-15T20:25:19;4.30;76.40
14049;DHT22;7099;53.922;10.728;2023-02-15T20:29:28;4.30;76.40
14049;DHT22;7099;53.922;10.728;2023-02-15T20:33:33;4.30;76.30
14049;DHT22;7099;53.922;10.728;2023-02-15T20:37:39;4.30;76.40
14049;DHT22;7099;53.922;10.728;2023-02-15T20:41:45;4.30;76.40
14049;DHT22;7099;53.922;10.728;2023-02-15T20:45:53;4.30;76.40
14049;DHT22;7099;53.922;10.728;2023-02-15T20:49:59;4.20;76.50
14049;DHT22;7099;53.922;10.728;2023-02-15T20:54:11;4.20;76.50
14049;DHT22;7099;53.922;10.728;2023-02-15T20:58:24;4.20;76.70
14049;DHT22;7099;53.922;10.728;2023-02-15T21:02:31;4.20;76.60
14049;DHT22;7099;53.922;10.728;2023-02-15T21:06:37;4.10;76.60
14049;DHT22;7099;53.922;10.728;2023-02-15T21:10:44;4.10;76.60
14049;DHT22;7099;53.922;10.728;2023-02-15T21:14:50;4.20;77.30
14049;DHT22;7099;53.922;10.728;2023-02-15T21:18:56;4.20;76.60
14049;DHT22;7099;53.922;10.728;2023-02-15T21:23:03;4.10;76.60
14049;DHT22;7099;53.922;10.728;2023-02-15T21:27:10;4.10;76.70
14049;DHT22;7099;53.922;10.728;2023-02-15T21:31:22;4.10;76.60
14049;DHT22;7099;53.922;10.728;2023-02-15T21:35:29;4.10;76.80
14049;DHT22;7099;53.922;10.728;2023-02-15T21:39:35;4.10;76.60
14049;DHT22;7099;53.922;10.728;2023-02-15T21:43:41;4.10;76.50
14049;DHT22;7099;53.922;10.728;2023-02-15T21:48:04;4.10;76.40
14049;DHT22;7099;53.922;10.728;2023-02-15T21:52:12;4.10;76.40
14049;DHT22;7099;53.922;10.728;2023-02-15T21:56:20;4.10;76.50
14049;DHT22;7099;53.922;10.728;2023-02-15T22:00:27;4.00;76.40
14049;DHT22;7099;53.922;10.728;2023-02-15T22:04:33;4.00;76.40
14049;DHT22;7099;53.922;10.728;2023-02-15T22:08:38;4.00;76.40
14049;DHT22;7099;53.922;10.728;2023-02-15T22:12:44;4.00;76.30
14049;DHT22;7099;53.922;10.728;2023-02-15T22:16:49;4.00;76.40
14049;DHT22;7099;53.922;10.728;2023-02-15T22:20:55;4.00;76.40
14049;DHT22;7099;53.922;10.728;2023-02-15T22:25:01;4.00;76.50
14049;DHT22;7099;53.922;10.728;2023-02-15T22:29:13;3.90;76.20
14049;DHT22;7099;53.922;10.728;2023-02-15T22:33:26;3.90;76.40
14049;DHT22;7099;53.922;10.728;2023-02-15T22:37:33;3.90;76.40
14049;DHT22;7099;53.922;10.728;2023-02-15T22:41:39;3.90;76.20
14049;DHT22;7099;53.922;10.728;2023-02-15T22:45:44;3.80;76.20
14049;DHT22;7099;53.922;10.728;2023-02-15T22:49:50;3.80;76.30
14049;DHT22;7099;53.922;10.728;2023-02-15T22:53:56;3.80;76.10
14049;DHT22;7099;53.922;10.728;2023-02-15T22:58:01;3.80;76.10
14049;DHT22;7099;53.922;10.728;2023-02-15T23:02:11;3.80;76.10
14049;DHT22;7099;53.922;10.728;2023-02-15T23:06:18;3.70;76.10
14049;DHT22;7099;53.922;10.728;2023-02-15T23:10:25;3.70;76.00
14049;DHT22;7099;53.922;10.728;2023-02-15T23:14:34;3.70;76.00
14049;DHT22;7099;53.922;10.728;2023-02-15T23:18:45;3.60;75.90
14049;DHT22;7099;53.922;10.728;2023-02-15T23:22:51;3.60;76.00
14049;DHT22;7099;53.922;10.728;2023-02-15T23:26:58;3.60;75.80
14049;DHT22;7099;53.922;10.728;2023-02-15T23:31:29;3.60;75.70
14049;DHT22;7099;53.922;10.728;2023-02-15T23:35:36;3.50;75.60
14049;DHT22;7099;53.922;10.728;2023-02-15T23:39:42;3.50;75.50
14049;DHT22;7099;53.922;10.728;2023-02-15T23:44:07;3.40;75.50
14049;DHT22;7099;53.922;10.728;2023-02-15T23:48:22;3.40;75.40
14049;DHT22;7099;53.922;10.728;2023-02-15T23:52:36;3.30;75.20
14049;DHT22;7099;53.922;10.728;2023-02-15T23:56:43;3.30;75.20
